AirNav   Air Wisconsin pilot careers
 
 995 users online  

KPCM Plant City Airport
Plant City, Florida, USA

GOING TO PLANT CITY?


FAA INFORMATION EFFECTIVE 12 OCTOBER 2017

Location

FAA Identifier: PCM
Lat/Long: 28-00-00.6000N / 082-09-47.9000W
28-00.010000N / 082-09.798333W
28.0001667 / -82.1633056
(estimated)
Elevation: 152.7 ft. / 46.5 m (surveyed)
Variation: 05W (2010)
From city: 2 miles SW of PLANT CITY, FL
Time zone: UTC -4 (UTC -5 during Standard Time)
Zip code: 33567

Airport Operations

Airport use: Open to the public
Activation date: 03/1948
Control tower: no
ARTCC: MIAMI CENTER
FSS: SAINT PETERSBURG FLIGHT SERVICE STATION
NOTAMs facility: PCM (NOTAM-D service available)
Attendance: 0700-1900
Pattern altitude: 952.7 ft. MSL
Wind indicator: lighted
Segmented circle: yes
Lights: ACTVT MIRL RY 10/28, PAPI RYS 10 & 28 AND REILS RYS 10 & 28 - CTAF.
Beacon: white-green (lighted land airport)
Operates sunset to sunrise.

Airport Communications

CTAF/UNICOM: 123.05
WX AWOS-3: 120.025 (813-764-8259)
TAMPA APPROACH: 120.65 119.9
TAMPA DEPARTURE: 120.65 119.9
WX AWOS-3PT at LAL (8 nm E): 118.025 (863-834-2030)
WX AWOS-3 at VDF (10 nm W): 121.125 (813-630-0924)
WX ASOS at ZPH (14 nm N): 118.975 (813-780-0031)
WX AWOS-3 at TPF (16 nm W): 118.925 (813-251-6824)
WX ASOS at TPA (20 nm W): PHONE 813-873-7228

Nearby radio navigation aids

VOR radial/distance  VOR name  Freq  Var
LALr275/8.0LAKELAND VORTAC116.0001E
PIEr084/28.2ST PETERSBURG VORTAC116.4005W

Airport Services

Fuel available: 100LL JET-A
Parking: hangars and tiedowns
Airframe service: MAJOR
Powerplant service: MAJOR
Bottled oxygen: NONE
Bulk oxygen: NONE

Runway Information

Runway 10/28

Dimensions: 3950 x 75 ft. / 1204 x 23 m
Surface: asphalt, in good condition
Weight bearing capacity: 
PCN 7 /F/C/X/T
Single wheel: 21.0
Runway edge lights: medium intensity
Gradient: WEST.
RUNWAY 10  RUNWAY 28
Latitude: 28-00.033208N27-59.985390N
Longitude: 082-10.165047W082-09.432610W
Elevation: 151.5 ft.137.9 ft.
Gradient: 0.3% DOWN0.3% UP
Traffic pattern: leftleft
Runway heading: 099 magnetic, 094 true279 magnetic, 274 true
Displaced threshold: 200 ft.no
Markings: nonprecision, in good conditionnonprecision, in good condition
Visual slope indicator: 2-light PAPI on left (3.00 degrees glide path)2-light PAPI on left (3.00 degrees glide path)
Runway end identifier lights: yesyes
Touchdown point: yes, no lightsyes, no lights
Obstructions: 15 ft. road, 281 ft. from runway, 5:1 slope to clear
RWY 10 RY 10 APCH RATIO 32:1 TO DSPLCD THLD.
18 ft. tree, 542 ft. from runway, 20:1 slope to clear

Airport Ownership and Management from official FAA records

Ownership: Publicly-owned
Owner: HILLSBOROUGH COUNTY AVIATION AUTH.
P.O. BOX 22287
TAMPA, FL 33622
Phone (813) 870-8711
Manager: BRETT FAY
4007 AIRPORT RD
PLANT CITY, FL 33622
Phone (813) 870-8735

Airport Operational Statistics

Aircraft based on the field: 87
Single engine airplanes: 73
Multi engine airplanes: 10
Helicopters: 4
    
Aircraft operations: avg 131/day *
77% local general aviation
23% transient general aviation
<1% air taxi
<1% military
* for 12-month period ending 03 November 2015

Additional Remarks

3 TV TWRS 1099' & 2 AT 1549' MSL 12 NM SSW.
GCO 121.725 TAMPA CLNC DEL, FOR PCM.
NOISE ABATEMENT PROC IN EFFECT FOR RY 10 DEP. NO TURNS BLO 500 FT AGL UNLESS DIRECTED BY ATC.
(CONTACT TITLE) AIRPORT PHYSICAL ADDRESS: PLANT CITY AIRPORT SERVICES, 4007 AIRPORT RD, PLANT CITY, FL 33563

Instrument Procedures

NOTE: All procedures below are presented as PDF files. If you need a reader for these files, you should download the free Adobe Reader.

NOT FOR NAVIGATION. Please procure official charts for flight.
FAA instrument procedures published for use between 14 September 2017 at 0901Z and 9 November 2017 at 0900Z.

 
IAPs - Instrument Approach Procedures
RNAV (GPS) RWY 10 **CHANGED**   download (218KB)
RNAV (GPS) RWY 28   download (217KB)
VOR RWY 28   download (167KB)
NOTE: Special Alternate Minimums apply   download
NOTE: Special Take-Off Minimums/Departure Procedures apply   download (162KB)

Other nearby airports with instrument procedures:

KLAL - Lakeland Linder Regional Airport (8 nm E)
KVDF - Tampa Executive Airport (10 nm W)
KZPH - Zephyrhills Municipal Airport (14 nm N)
KTPF - Peter O Knight Airport (16 nm W)
KTPA - Tampa International Airport (20 nm W)
 
Loc | Ops | Rwys | IFR | FBO | Links
Com | Nav | Svcs | Stats | Notes


 
Area around KPCM (Plant City Airport)
 
Road maps at: MapQuest Bing Google
 
Aerial photo
WARNING: Photo may not be current or correct
Aerial photo of KPCM (Plant City Airport)
Photo courtesy of PhotosFromTheAir.com
Photo taken 27-Feb-2012
looking west.

Do you have a better or more recent aerial photo of Plant City Airport that you would like to share? If so, please send us your photo.

 
Sectional chart

 
Airport distance calculator
Flying to Plant City Airport? Find the distance to fly.

From to KPCM

Sunrise and sunset
Times for 22-Oct-2017
 Local
(UTC-4)
 Zulu
(UTC)
Morning civil twilight07:1011:10
Sunrise07:3411:34
Sunset18:5222:52
Evening civil twilight19:1623:16

Current date and time
Zulu (UTC)  22-Oct-2017 17:45:53
Local (UTC-4)  22-Oct-2017 13:45:53
 
METAR
KPCM 221735Z AUTO 10012G17KT 10SM BKN041 BKN046 BKN050 32/21 A3011 RMK AO2
KLAL 
8nm E 
221650Z 11009KT 10SM BKN035 31/22 A3012
KVDF 
10nm W 
221735Z AUTO 11007G16KT 10SM SCT043 32/21 A3009 RMK AO2
KZPH 
14nm N 
221735Z AUTO 10013KT 10SM SCT037 BKN045 BKN090 32/22 A3011 RMK AO2 T03180223
KTPF 
16nm W 
221735Z AUTO 13011G15KT 7SM SCT041 BKN049 31/21 A3009 RMK AO2
KTPA 
20nm W 
221653Z 12010KT 10SM SCT036 SCT300 32/23 A3010 RMK AO2 SLP192 T03170228
TAF
KLAL 
8nm E 
221507Z 2215/2312 12011KT P6SM SCT020 BKN060 TEMPO 2215/2217 BKN017 FM221800 13011G16KT P6SM VCSH SCT020 BKN110 FM230000 11006KT P6SM FEW035 BKN150
KTPA 
20nm W 
221506Z 2215/2312 10009KT P6SM SCT025 BKN200 TEMPO 2215/2217 BKN025 FM221700 13010KT P6SM VCSH SCT025 BKN150 FM230000 12006KT P6SM SCT030 BKN150
NOTAMs
Click for the latest NOTAMs
NOTAMs are issued by the DoD/FAA and will open in a separate window not controlled by AirNav.

 

 
 

FBO, Fuel Providers, and Aircraft Ground Support

  
 Business Name 
 
 Contact 
 
 Services / Description 
 
Fuel Prices
 
Comments
  
Plant City Airport Services 813-752-4710
[web site]
[email]
Aviation fuel, Aircraft parking (ramp or tiedown), Hangars, Passenger terminal and lounge, Flight training, Aircraft rental, Aerial tours / aerial sightseeing, ...
 
AirBoss™ fuel program  
 
More info about Plant City Airport Services
Shell
100LL Jet A
FS $4.75 $4.00 
GUARANTEED
AirBossMEMBERS
ONLY
Discounts
LoginJoin
 
   2 read write
Alternatives at nearby airports
IMPORTANT: Note that the FBOs below are NOT at KPCM but at other nearby airports. Do not expect services from these FBOs to be available at KPCM.
Located at KLAL
Sheltair Lakeland
UNICOM 122.95
863-647-3911
[web site]
[email]
At KLAL (Lakeland Linder Regional Airport), 8 miles E


More info and photos of Sheltair Lakeland (KLAL)
Located at KLAL
Avfuel
100LL Jet A
FS $5.30 $5.29 
SS $3.80 --- 
 Updated 17-Oct-2017
 
   7 read write
FS=Full service
SS=Self service
Update Fuel Prices
 

Would you like to see your business listed on this page?

 If your business provides an interesting product or service to pilots, flight crews, aircraft, or users of the Plant City Airport, you should consider listing it here.  To start the listing process, click on the button below
 
Add a business
 

Other Pages about Plant City Airport

www.pcairport.net
 
Update a link
 
Copyright © AirNav, LLC. All rights reserved. Privacy Policy  Contact